createdAt,value
2018-03-16T00:05:13.868Z,4.64
2018-03-16T00:11:04.505Z,3.12
2018-03-16T00:16:55.132Z,4.1
2018-03-16T00:22:45.811Z,4.32
2018-03-16T00:28:36.457Z,4.95
2018-03-16T00:34:27.080Z,4.55
2018-03-16T00:40:17.708Z,3.96
2018-03-16T00:46:08.359Z,4.12
2018-03-16T00:51:58.979Z,5.07
2018-03-16T00:57:49.671Z,5.51
2018-03-16T01:03:40.342Z,4.29
2018-03-16T01:09:30.932Z,5.32
2018-03-16T01:15:21.534Z,5.24
2018-03-16T01:21:12.185Z,6.07
2018-03-16T01:27:02.878Z,4.68
2018-03-16T01:32:53.531Z,4.96
2018-03-16T01:38:44.145Z,3.6
2018-03-16T01:44:34.744Z,2.72
2018-03-16T01:50:25.429Z,5.07
2018-03-16T01:56:16.039Z,4.33
2018-03-16T02:02:06.702Z,4.46
2018-03-16T02:07:57.370Z,3.9
2018-03-16T02:13:47.956Z,4.08
2018-03-16T02:19:38.572Z,3.85
2018-03-16T02:25:29.188Z,4.78
2018-03-16T02:31:19.822Z,3.8
2018-03-16T02:37:10.470Z,3.99
2018-03-16T02:43:01.125Z,4.01
2018-03-16T02:48:51.747Z,2.45
2018-03-16T02:54:42.393Z,1.59
2018-03-16T03:00:33.013Z,1.93
2018-03-16T03:06:23.628Z,1.56
2018-03-16T03:12:14.252Z,2.23
2018-03-16T03:18:04.875Z,1.99
2018-03-16T03:23:55.517Z,3.03
2018-03-16T03:29:46.151Z,3.61
2018-03-16T03:35:36.751Z,3.88
2018-03-16T03:41:27.410Z,3.98
2018-03-16T03:47:18.019Z,3.36
2018-03-16T03:53:08.682Z,2.66
2018-03-16T03:58:59.319Z,3.02
2018-03-16T04:04:49.938Z,2.31
2018-03-16T04:10:40.588Z,2.05
2018-03-16T04:16:31.224Z,1.84
2018-03-16T04:22:21.800Z,2.14
2018-03-16T04:28:12.443Z,1.48
2018-03-16T04:34:03.125Z,2.26
2018-03-16T04:39:53.688Z,2.64
2018-03-16T04:45:44.308Z,1.56
2018-03-16T04:51:34.991Z,1.6
2018-03-16T04:57:25.569Z,1.41
2018-03-16T05:03:16.242Z,1.98
2018-03-16T05:09:06.850Z,2.29
2018-03-16T05:14:57.488Z,1.87
2018-03-16T05:20:48.082Z,1.73
2018-03-16T05:26:38.753Z,1.87
2018-03-16T05:32:29.357Z,2.01
2018-03-16T05:38:20.055Z,2.83
2018-03-16T05:44:10.626Z,2.4
2018-03-16T05:50:01.266Z,2.21
2018-03-16T05:55:51.889Z,1.97
2018-03-16T06:01:42.505Z,1.85
2018-03-16T06:07:33.116Z,3
2018-03-16T06:13:23.713Z,4.1
2018-03-16T06:19:14.325Z,4.72
2018-03-16T06:25:04.985Z,3.67
2018-03-16T06:30:55.591Z,3.78
2018-03-16T06:36:46.185Z,4.97
2018-03-16T06:42:36.838Z,5.19
2018-03-16T06:48:27.437Z,4.24
2018-03-16T06:54:18.093Z,4.65
2018-03-16T07:00:08.691Z,5.49
2018-03-16T07:05:59.328Z,5.01
2018-03-16T07:11:49.958Z,3.8
2018-03-16T07:17:40.603Z,4.71
2018-03-16T07:23:31.180Z,5.21
2018-03-16T07:29:21.828Z,5
2018-03-16T07:35:12.522Z,4.1
2018-03-16T07:41:03.134Z,4.87
2018-03-16T07:46:53.759Z,4.4
2018-03-16T07:52:44.444Z,4.63
2018-03-16T07:58:35.036Z,4.49
2018-03-16T08:04:25.683Z,5.2
2018-03-16T08:10:16.337Z,3.66
2018-03-16T08:16:06.976Z,2.7
2018-03-16T08:21:57.623Z,3.73
2018-03-16T08:27:48.239Z,2.31
2018-03-16T08:33:38.876Z,2.44
2018-03-16T08:39:29.573Z,3.41
2018-03-16T08:45:20.172Z,3.1
2018-03-16T08:51:10.864Z,2.55
2018-03-16T08:57:01.523Z,3.03
2018-03-16T09:02:52.196Z,2.71
2018-03-16T09:08:42.836Z,3.22
2018-03-16T09:14:33.468Z,3.14
2018-03-16T09:20:24.104Z,3.5
2018-03-16T09:26:14.816Z,2.85
2018-03-16T09:32:05.450Z,3.41
2018-03-16T09:37:56.123Z,2.83
2018-03-16T09:43:46.822Z,3.48
2018-03-16T09:49:37.440Z,3.47
2018-03-16T09:55:28.123Z,3.35
2018-03-16T10:01:18.798Z,3.06
2018-03-16T10:07:09.510Z,3.39
2018-03-16T10:13:00.119Z,5.76
2018-03-16T10:18:50.939Z,6.45
2018-03-16T10:24:41.431Z,4.77
2018-03-16T10:30:32.116Z,5.99
2018-03-16T10:36:22.771Z,6.87
2018-03-16T10:42:13.486Z,6.24
2018-03-16T10:48:04.104Z,5.28
2018-03-16T10:53:54.772Z,3.65
2018-03-16T10:59:45.439Z,3.23
2018-03-16T11:05:36.114Z,2.78
2018-03-16T11:11:26.793Z,2.54
2018-03-16T11:17:17.573Z,2.39
2018-03-16T11:23:08.167Z,2.69
2018-03-16T11:28:58.799Z,2.42
2018-03-16T11:34:49.521Z,2
2018-03-16T11:40:40.164Z,2.09
2018-03-16T11:46:30.826Z,3.61
2018-03-16T11:52:21.504Z,3.6
2018-03-16T11:58:12.185Z,3.23
2018-03-16T12:04:02.824Z,4.03
2018-03-16T12:09:53.498Z,3.68
2018-03-16T12:15:44.145Z,3.69
2018-03-16T12:21:34.825Z,5.27
2018-03-16T12:27:25.457Z,3.26
2018-03-16T12:33:16.112Z,3.58
2018-03-16T12:39:06.774Z,3.07
2018-03-16T12:44:57.406Z,2.81
2018-03-16T12:50:48.127Z,2.24
2018-03-16T12:56:38.802Z,1.75
2018-03-16T13:02:29.458Z,2.47
2018-03-16T13:08:20.098Z,2.3
2018-03-16T13:14:10.759Z,2.43
2018-03-16T13:20:01.433Z,2.5
2018-03-16T13:25:52.077Z,1.32
2018-03-16T13:31:42.775Z,1.67
2018-03-16T13:37:33.489Z,1.89
2018-03-16T13:43:24.217Z,2
2018-03-16T13:49:14.872Z,4.3
2018-03-16T13:55:05.640Z,2.28
2018-03-16T14:00:56.351Z,2.89
2018-03-16T14:06:47.113Z,2.41
2018-03-16T14:12:37.792Z,3.21
2018-03-16T14:18:28.533Z,2.76
2018-03-16T14:24:19.259Z,2.26
2018-03-16T14:30:10.023Z,2.71
2018-03-16T14:36:00.704Z,2.49
2018-03-16T14:41:51.381Z,3.21
2018-03-16T14:47:42.100Z,1.89
2018-03-16T14:53:32.798Z,2.05
2018-03-16T14:59:23.520Z,2.04
2018-03-16T15:05:14.219Z,1.14
2018-03-16T15:11:04.934Z,1.84
2018-03-16T15:16:55.590Z,1.77
2018-03-16T15:22:46.374Z,1.76
2018-03-16T15:28:37.013Z,1.3
2018-03-16T15:34:27.768Z,3.06
2018-03-16T15:40:18.463Z,5.81
2018-03-16T15:46:09.235Z,5.83
2018-03-16T15:51:59.848Z,3.78
2018-03-16T15:57:50.569Z,3.07
2018-03-16T16:03:41.231Z,3.42
2018-03-16T16:09:31.937Z,3.79
2018-03-16T16:15:22.632Z,4.19
2018-03-16T16:21:13.284Z,3.25
2018-03-16T16:27:03.991Z,3.36
2018-03-16T16:32:54.639Z,3.7
2018-03-16T16:38:45.297Z,3.73
2018-03-16T16:44:35.980Z,3.45
2018-03-16T16:50:26.655Z,3.33
2018-03-16T16:56:17.325Z,3.36
2018-03-16T17:02:07.961Z,2.8
2018-03-16T17:07:58.650Z,2.98
2018-03-16T17:13:49.287Z,2.9
2018-03-16T17:19:39.945Z,2.75
2018-03-16T17:25:30.590Z,2.44
2018-03-16T17:31:21.268Z,3.53
2018-03-16T17:37:11.985Z,3.17
2018-03-16T17:43:02.561Z,3.89
2018-03-16T17:48:53.229Z,6
2018-03-16T17:54:43.906Z,4.24
2018-03-16T18:00:34.544Z,4.84
2018-03-16T18:06:25.175Z,6.59
2018-03-16T18:12:15.860Z,5.11
2018-03-16T18:18:06.510Z,6.04
2018-03-16T18:23:57.165Z,5.53
2018-03-16T18:29:47.804Z,5.97
2018-03-16T18:35:38.486Z,5.92
2018-03-16T18:41:29.168Z,6.41
2018-03-16T18:47:19.805Z,7.47
2018-03-16T18:53:10.441Z,10.23
2018-03-16T18:59:01.052Z,9.35
2018-03-16T19:04:51.749Z,8.42
2018-03-16T19:10:42.384Z,10.01
2018-03-16T19:16:33.025Z,11.97
2018-03-16T19:22:23.668Z,11.15
2018-03-16T19:28:14.394Z,9.86
2018-03-16T19:34:05.021Z,8.79
2018-03-16T19:39:55.632Z,8.85
2018-03-16T19:45:46.261Z,9.06
2018-03-16T19:51:36.956Z,8.78
2018-03-16T19:57:27.587Z,9.51
2018-03-16T20:03:18.264Z,11.1
2018-03-16T20:09:08.942Z,9.64
2018-03-16T20:14:59.513Z,10.55
2018-03-16T20:20:50.249Z,11.03
2018-03-16T20:26:40.945Z,11.01
2018-03-16T20:32:31.451Z,9.35
2018-03-16T20:38:22.129Z,9
2018-03-16T20:44:12.743Z,10.91
2018-03-16T20:50:03.444Z,16.05
2018-03-16T20:55:54.034Z,12.28
2018-03-16T21:01:44.712Z,11.79
2018-03-16T21:07:35.337Z,10.96
2018-03-16T21:13:26.003Z,11.23
2018-03-16T21:19:16.674Z,10.21
2018-03-16T21:25:07.278Z,11
2018-03-16T21:30:57.971Z,13.42
2018-03-16T21:36:48.588Z,11.39
2018-03-16T21:42:39.261Z,10.73
2018-03-16T21:48:29.922Z,11.2
2018-03-16T21:54:20.575Z,13.37
2018-03-16T22:00:11.249Z,13.15
2018-03-16T22:06:01.878Z,13.21
2018-03-16T22:11:52.567Z,14.11
2018-03-16T22:17:43.217Z,12.8
2018-03-16T22:23:33.897Z,13.4
2018-03-16T22:29:24.530Z,13.96
2018-03-16T22:35:15.166Z,16.08
2018-03-16T22:41:05.834Z,17.31
2018-03-16T22:46:56.488Z,14.32
2018-03-16T22:52:47.151Z,10.97
2018-03-16T22:58:37.809Z,9.01
2018-03-16T23:04:28.453Z,10.39
2018-03-16T23:10:19.129Z,6.47
2018-03-16T23:16:09.779Z,5.9
2018-03-16T23:22:00.456Z,4.29
2018-03-16T23:27:51.102Z,4.45
2018-03-16T23:33:41.762Z,5.95
2018-03-16T23:39:32.419Z,7.5
2018-03-16T23:45:23.104Z,10.82
2018-03-16T23:51:13.785Z,10.23
2018-03-16T23:57:04.393Z,11.2
